Time;durP1;ratioP1;P1;durP2;ratioP2;P2;SDS_P1;SDS_P2;PMS_P1;PMS_P2;Temp;Humidity;BMP_temperature;BMP_pressure;BME280_temperature;BME280_humidity;BME280_pressure;Samples;Min_cycle;Max_cycle;Signal;HPM_P1;HPM_P2
2022/04/03 00:02:13;;;;;;;3.50;1.90;;;7.70;87.80;;;;;;4918674;29;20488;-95
2022/04/03 00:04:39;;;;;;;2.03;1.70;;;7.70;87.80;;;;;;4919199;29;20444;-94
2022/04/03 00:07:07;;;;;;;2.57;2.20;;;7.70;87.80;;;;;;4903537;29;20425;-94
2022/04/03 00:09:35;;;;;;;2.27;1.70;;;7.70;87.80;;;;;;4921069;29;20492;-93
2022/04/03 00:12:04;;;;;;;3.83;2.07;;;7.70;87.80;;;;;;4937723;29;20526;-95
2022/04/03 00:14:30;;;;;;;3.70;1.73;;;7.70;87.90;;;;;;4935890;29;20455;-94
2022/04/03 00:16:56;;;;;;;2.60;1.80;;;7.70;87.90;;;;;;4956887;29;20471;-95
2022/04/03 00:19:23;;;;;;;3.30;1.70;;;7.70;87.90;;;;;;4926347;29;20381;-95
2022/04/03 00:21:49;;;;;;;3.77;2.23;;;7.70;88.00;;;;;;4938285;29;20488;-95
2022/04/03 00:24:18;;;;;;;2.67;1.73;;;7.70;88.10;;;;;;4937988;29;20893;-94
2022/04/03 00:26:43;;;;;;;3.90;2.03;;;7.70;88.10;;;;;;4941224;29;20503;-94
2022/04/03 00:29:09;;;;;;;4.23;2.13;;;7.70;88.10;;;;;;4939863;29;20459;-93
2022/04/03 00:31:35;;;;;;;2.10;1.90;;;7.70;88.30;;;;;;4909621;29;20464;-94
2022/04/03 00:34:01;;;;;;;3.83;1.70;;;7.70;88.30;;;;;;4957106;29;20513;-95
2022/04/03 00:36:34;;;;;;;1.90;1.70;;;7.70;88.30;;;;;;4956764;29;20447;-91
2022/04/03 00:39:03;;;;;;;3.10;1.87;;;7.70;88.30;;;;;;4956532;29;20419;-95
2022/04/03 00:41:31;;;;;;;2.50;1.57;;;7.70;88.30;;;;;;4925486;29;20819;-93
2022/04/03 00:44:00;;;;;;;2.30;2.10;;;7.70;88.30;;;;;;4921407;29;20452;-95
2022/04/03 00:46:28;;;;;;;3.10;2.20;;;7.60;88.20;;;;;;4922715;29;20432;-94
2022/04/03 00:48:57;;;;;;;2.47;1.93;;;7.60;88.20;;;;;;4937848;29;20885;-95
2022/04/03 00:51:25;;;;;;;3.17;2.03;;;7.60;88.30;;;;;;4921907;29;20436;-93
2022/04/03 00:53:51;;;;;;;2.40;1.73;;;7.60;88.30;;;;;;4922728;29;20493;-95
2022/04/03 00:56:18;;;;;;;3.27;1.73;;;7.60;88.30;;;;;;4921865;29;20472;-92
2022/04/03 00:58:44;;;;;;;1.73;1.30;;;7.60;88.30;;;;;;4940373;29;20188;-95
2022/04/03 01:01:13;;;;;;;2.93;1.80;;;7.60;88.20;;;;;;4927290;29;20516;-93
2022/04/03 01:03:42;;;;;;;3.70;1.90;;;7.60;88.30;;;;;;4939234;29;20434;-94
2022/04/03 01:06:10;;;;;;;5.20;2.00;;;7.60;88.30;;;;;;4933858;29;20960;-94
2022/04/03 01:08:36;;;;;;;2.10;1.80;;;7.60;88.20;;;;;;4950264;29;20510;-94
2022/04/03 01:11:05;;;;;;;2.93;2.43;;;7.60;88.20;;;;;;4940329;29;20443;-93
2022/04/03 01:13:33;;;;;;;5.77;1.80;;;7.50;88.10;;;;;;4940855;29;20546;-95
2022/04/03 01:16:01;;;;;;;2.60;2.27;;;7.60;88.30;;;;;;4940343;29;20466;-92
2022/04/03 01:18:28;;;;;;;3.60;1.97;;;7.60;88.30;;;;;;4940848;29;20451;-94
2022/04/03 01:20:54;;;;;;;2.23;2.03;;;7.60;88.30;;;;;;4928418;29;20768;-95
2022/04/03 01:23:21;;;;;;;2.47;2.00;;;7.60;88.40;;;;;;4929930;29;20454;-93
2022/04/03 01:25:47;;;;;;;1.90;1.70;;;7.60;88.40;;;;;;4940813;29;20442;-94
2022/04/03 01:28:13;;;;;;;3.37;2.23;;;7.60;89.10;;;;;;4934595;29;20538;-95
2022/04/03 01:30:41;;;;;;;2.70;2.07;;;7.50;89.00;;;;;;4952915;29;20756;-92
2022/04/03 01:33:07;;;;;;;3.70;1.93;;;7.50;88.30;;;;;;4935178;29;20518;-94
2022/04/03 01:35:33;;;;;;;2.50;2.00;;;7.50;88.30;;;;;;4940203;29;20503;-94
2022/04/03 01:38:01;;;;;;;6.10;1.93;;;7.60;88.40;;;;;;4956320;29;20447;-93
2022/04/03 01:40:29;;;;;;;2.87;1.60;;;7.50;88.30;;;;;;4955346;29;20495;-95
2022/04/03 01:42:55;;;;;;;3.60;2.10;;;7.50;88.30;;;;;;4939445;29;20479;-94
2022/04/03 01:45:26;;;;;;;2.53;2.03;;;7.50;88.40;;;;;;4940371;29;20915;-96
2022/04/03 01:47:54;;;;;;;2.97;2.10;;;7.50;88.40;;;;;;4939188;29;20439;-93
2022/04/03 01:50:24;;;;;;;2.63;2.40;;;7.60;88.40;;;;;;4931685;29;20820;-89
2022/04/03 01:52:53;;;;;;;2.10;1.90;;;7.50;88.30;;;;;;4920929;29;20444;-93
2022/04/03 01:55:19;;;;;;;3.73;2.30;;;7.50;88.30;;;;;;4928540;29;20494;-94
2022/04/03 01:57:45;;;;;;;2.60;1.73;;;7.50;88.40;;;;;;4955331;29;20455;-92
2022/04/03 02:00:14;;;;;;;2.90;2.10;;;7.50;88.40;;;;;;4940197;29;20428;-95
2022/04/03 02:02:40;;;;;;;2.57;2.17;;;7.50;88.30;;;;;;4955147;29;20455;-95
2022/04/03 02:05:09;;;;;;;3.13;2.03;;;7.50;88.40;;;;;;4940228;29;20756;-93
2022/04/03 02:07:38;;;;;;;2.60;2.13;;;7.50;88.40;;;;;;4923116;29;20447;-91
2022/04/03 02:10:09;;;;;;;1.97;1.60;;;7.50;88.40;;;;;;4942616;29;20563;-96
2022/04/03 02:12:39;;;;;;;3.50;2.27;;;7.50;88.40;;;;;;4939426;29;20454;-94
2022/04/03 02:15:11;;;;;;;5.67;2.33;;;7.50;88.40;;;;;;4923675;29;20894;-94
2022/04/03 02:17:40;;;;;;;2.17;1.97;;;7.50;88.40;;;;;;4953788;29;20459;-94
2022/04/03 02:20:09;;;;;;;2.93;1.70;;;7.50;88.40;;;;;;4939843;29;20528;-95
2022/04/03 02:22:37;;;;;;;2.87;2.00;;;7.50;89.20;;;;;;4904978;29;20971;-95
2022/04/03 02:25:04;;;;;;;3.17;2.00;;;7.40;88.30;;;;;;4920652;29;20452;-96
2022/04/03 02:27:31;;;;;;;3.57;2.43;;;7.50;88.40;;;;;;4920281;29;20440;-91
2022/04/03 02:29:57;;;;;;;2.60;1.70;;;7.50;89.20;;;;;;4920243;29;20452;-94
2022/04/03 02:32:23;;;;;;;3.40;2.70;;;7.40;88.40;;;;;;4920150;29;20439;-93
2022/04/03 02:34:51;;;;;;;2.57;2.17;;;7.50;88.50;;;;;;4939434;29;20455;-95
2022/04/03 02:37:16;;;;;;;3.43;2.17;;;7.40;88.30;;;;;;4939847;29;20556;-94
2022/04/03 02:39:44;;;;;;;4.40;2.20;;;7.40;88.30;;;;;;4938538;29;20474;-94
2022/04/03 02:42:10;;;;;;;3.50;2.20;;;7.40;88.40;;;;;;4954649;29;20841;-95
2022/04/03 02:44:40;;;;;;;3.10;2.20;;;7.40;88.30;;;;;;4938920;29;20419;-94
2022/04/03 02:47:06;;;;;;;2.50;1.87;;;7.40;88.30;;;;;;4954828;29;20436;-94
2022/04/03 02:49:32;;;;;;;3.30;2.20;;;7.40;88.30;;;;;;4954789;29;20472;-94
2022/04/03 02:52:00;;;;;;;2.53;2.00;;;7.40;88.30;;;;;;4953633;29;20432;-94
2022/04/03 02:54:28;;;;;;;2.70;2.00;;;7.40;88.20;;;;;;4972510;28;20447;-93
2022/04/03 02:56:54;;;;;;;3.00;2.10;;;7.40;88.20;;;;;;4953090;29;20498;-94
2022/04/03 02:59:22;;;;;;;2.40;2.00;;;7.40;88.20;;;;;;4954673;29;20424;-95
2022/04/03 03:01:48;;;;;;;3.43;2.00;;;7.40;88.10;;;;;;4938596;29;20465;-94
2022/04/03 03:04:14;;;;;;;2.57;2.23;;;7.40;88.10;;;;;;4938718;29;20435;-93
2022/04/03 03:06:41;;;;;;;3.43;2.53;;;7.40;88.00;;;;;;4927738;29;20444;-93
2022/04/03 03:09:09;;;;;;;3.10;2.90;;;7.40;88.00;;;;;;4919818;29;20954;-93
2022/04/03 03:11:35;;;;;;;2.20;1.73;;;7.40;88.10;;;;;;4937507;29;20466;-92
2022/04/03 03:14:01;;;;;;;3.73;1.80;;;7.40;88.00;;;;;;4938330;29;20490;-94
2022/04/03 03:16:29;;;;;;;1.83;1.67;;;7.40;88.00;;;;;;4905987;29;20272;-95
2022/04/03 03:18:54;;;;;;;3.53;2.00;;;7.40;88.10;;;;;;4919515;29;20770;-91
2022/04/03 03:21:23;;;;;;;2.60;2.20;;;7.30;88.00;;;;;;4935473;29;20436;-94
2022/04/03 03:23:51;;;;;;;3.07;2.27;;;7.30;88.00;;;;;;4932639;29;20320;-94
2022/04/03 03:26:17;;;;;;;6.57;2.43;;;7.30;88.00;;;;;;4938527;29;20474;-93
2022/04/03 03:28:42;;;;;;;5.83;2.20;;;7.30;87.90;;;;;;4927724;29;20492;-93
2022/04/03 03:31:08;;;;;;;3.50;2.30;;;7.30;88.00;;;;;;4943389;29;20925;-95
2022/04/03 03:33:37;;;;;;;3.93;2.47;;;7.30;87.90;;;;;;4938890;29;20475;-94
2022/04/03 03:36:04;;;;;;;3.47;2.30;;;7.30;88.00;;;;;;4946699;29;20848;-94
2022/04/03 03:38:30;;;;;;;5.23;2.07;;;7.30;87.90;;;;;;4919704;29;20829;-92
2022/04/03 03:40:56;;;;;;;3.03;1.90;;;7.30;87.90;;;;;;4924334;29;20444;-94
2022/04/03 03:43:21;;;;;;;1.63;1.53;;;7.30;87.90;;;;;;4953164;29;20199;-94
2022/04/03 03:45:49;;;;;;;2.70;1.63;;;7.20;87.80;;;;;;4936106;29;20439;-93
2022/04/03 03:48:15;;;;;;;2.40;1.83;;;7.20;87.80;;;;;;4920305;29;20197;-90
2022/04/03 03:50:43;;;;;;;2.80;1.97;;;7.30;87.90;;;;;;4939593;29;20995;-92
2022/04/03 03:53:14;;;;;;;3.03;2.00;;;7.30;87.90;;;;;;4941098;29;20463;-94
2022/04/03 03:55:39;;;;;;;2.40;2.00;;;7.20;87.90;;;;;;4936112;29;20291;-94
2022/04/03 03:58:06;;;;;;;2.93;2.47;;;7.30;87.90;;;;;;4935247;29;20454;-93
2022/04/03 04:00:32;;;;;;;1.50;1.40;;;7.20;87.80;;;;;;4937416;29;20426;-92
2022/04/03 04:03:01;;;;;;;2.60;2.30;;;7.20;87.70;;;;;;4937710;29;20474;-94
2022/04/03 04:05:29;;;;;;;2.83;2.33;;;7.20;87.90;;;;;;4941529;29;20436;-93
2022/04/03 04:07:57;;;;;;;4.20;2.00;;;7.20;87.90;;;;;;4922536;29;20443;-93
2022/04/03 04:10:25;;;;;;;2.63;1.70;;;7.20;87.90;;;;;;4922375;29;20523;-93
2022/04/03 04:12:54;;;;;;;3.40;1.87;;;7.20;87.90;;;;;;4932941;29;20214;-91
2022/04/03 04:15:20;;;;;;;2.60;1.87;;;7.20;87.80;;;;;;4953224;29;20463;-89
2022/04/03 04:17:48;;;;;;;3.30;2.17;;;7.20;87.90;;;;;;4911555;29;20449;-93
2022/04/03 04:20:19;;;;;;;2.47;2.20;;;7.20;87.90;;;;;;4934139;29;20429;-93
2022/04/03 04:22:49;;;;;;;2.20;1.83;;;7.20;87.90;;;;;;4937433;29;20470;-94
2022/04/03 04:25:19;;;;;;;2.60;1.90;;;7.20;87.90;;;;;;4937305;29;20885;-93
2022/04/03 04:27:45;;;;;;;4.10;2.10;;;7.20;87.90;;;;;;4933269;29;20582;-93
2022/04/03 04:30:13;;;;;;;6.60;2.10;;;7.10;87.70;;;;;;4937612;29;20439;-94
2022/04/03 04:32:39;;;;;;;4.60;2.00;;;7.10;87.80;;;;;;4937075;29;20432;-93
2022/04/03 04:35:08;;;;;;;5.27;2.00;;;7.10;87.90;;;;;;4932241;29;20452;-92
2022/04/03 04:37:34;;;;;;;3.90;2.23;;;7.10;87.80;;;;;;4918475;29;20468;-93
2022/04/03 04:40:03;;;;;;;3.20;1.87;;;7.10;87.80;;;;;;4923899;29;20432;-94
2022/04/03 04:42:29;;;;;;;3.33;2.13;;;7.10;87.90;;;;;;4956456;28;20512;-94
2022/04/03 04:44:57;;;;;;;4.50;2.30;;;7.10;87.90;;;;;;4956744;29;20426;-95
2022/04/03 04:47:23;;;;;;;2.07;1.87;;;7.10;87.90;;;;;;4955187;28;20433;-93
2022/04/03 04:49:54;;;;;;;4.20;2.17;;;7.10;88.70;;;;;;4934073;29;20590;-94
2022/04/03 04:52:20;;;;;;;4.00;2.10;;;7.00;87.80;;;;;;4919558;29;20177;-93
2022/04/03 04:54:48;;;;;;;2.60;2.00;;;7.00;87.90;;;;;;4937911;29;20900;-95
2022/04/03 04:57:14;;;;;;;3.20;2.03;;;7.00;87.90;;;;;;4921011;29;20215;-91
2022/04/03 04:59:39;;;;;;;1.73;1.53;;;7.00;87.90;;;;;;4950389;29;20490;-93
2022/04/03 05:02:08;;;;;;;2.90;1.90;;;7.00;87.90;;;;;;4935474;29;20765;-93
2022/04/03 05:04:36;;;;;;;2.73;2.10;;;7.00;87.80;;;;;;4937466;29;20392;-90
2022/04/03 05:07:05;;;;;;;2.30;2.10;;;7.00;87.90;;;;;;4951992;29;20195;-93
2022/04/03 05:09:31;;;;;;;3.97;2.40;;;7.00;87.90;;;;;;4925455;29;20551;-93
2022/04/03 05:11:58;;;;;;;1.47;1.37;;;7.00;87.90;;;;;;4944880;29;20443;-93
2022/04/03 05:14:24;;;;;;;3.17;2.07;;;6.90;87.80;;;;;;4914627;29;20440;-94
2022/04/03 05:16:50;;;;;;;2.80;2.10;;;7.00;87.90;;;;;;4921818;29;20467;-91
2022/04/03 05:19:16;;;;;;;3.40;2.00;;;6.90;87.90;;;;;;4937241;29;20496;-93
2022/04/03 05:21:44;;;;;;;3.27;2.20;;;6.90;87.90;;;;;;4937179;29;20929;-93
2022/04/03 05:24:10;;;;;;;3.33;2.27;;;6.90;88.00;;;;;;4952840;29;20438;-91
2022/04/03 05:26:38;;;;;;;2.77;2.20;;;6.90;87.90;;;;;;4955339;29;20200;-92
2022/04/03 05:29:04;;;;;;;2.93;2.13;;;6.90;87.90;;;;;;4925497;29;20548;-91
2022/04/03 05:31:32;;;;;;;4.10;2.73;;;6.90;87.90;;;;;;4936885;29;20188;-91
2022/04/03 05:33:58;;;;;;;3.00;2.10;;;6.90;87.90;;;;;;4921126;29;20228;-92
2022/04/03 05:36:24;;;;;;;2.30;2.10;;;6.90;87.90;;;;;;4925503;29;20500;-91
2022/04/03 05:38:50;;;;;;;6.00;2.37;;;6.90;87.90;;;;;;4920997;29;20910;-91
2022/04/03 05:41:16;;;;;;;2.47;2.20;;;6.90;87.90;;;;;;4905754;29;20500;-93
2022/04/03 05:43:42;;;;;;;4.13;2.40;;;6.90;88.00;;;;;;4926799;29;20464;-90
2022/04/03 05:46:10;;;;;;;5.03;2.30;;;6.80;88.00;;;;;;4955832;29;20443;-94
2022/04/03 05:48:36;;;;;;;3.67;2.20;;;6.80;88.00;;;;;;4927932;29;20446;-91
2022/04/03 05:51:02;;;;;;;5.13;2.50;;;6.80;88.00;;;;;;4944769;29;20426;-93
2022/04/03 05:53:30;;;;;;;3.90;2.80;;;6.80;88.00;;;;;;4956106;29;20567;-92
2022/04/03 05:55:56;;;;;;;4.10;2.60;;;6.80;88.10;;;;;;4920881;29;20499;-93
2022/04/03 05:58:26;;;;;;;5.70;2.40;;;6.80;88.00;;;;;;4936635;29;20463;-91
2022/04/03 06:00:52;;;;;;;2.80;2.50;;;6.80;88.10;;;;;;4937305;29;20849;-90
2022/04/03 06:03:20;;;;;;;3.30;2.27;;;6.80;88.10;;;;;;4920965;29;20786;-91
2022/04/03 06:05:48;;;;;;;3.13;2.70;;;6.80;88.10;;;;;;4913358;29;20517;-90
2022/04/03 06:08:14;;;;;;;2.60;2.10;;;6.80;88.10;;;;;;4939635;29;20636;-91
2022/04/03 06:10:44;;;;;;;2.27;2.07;;;6.70;88.10;;;;;;4939653;29;20479;-90
2022/04/03 06:13:14;;;;;;;4.07;2.50;;;6.80;88.30;;;;;;4951338;28;20514;-90
2022/04/03 06:15:45;;;;;;;5.27;2.57;;;6.70;88.20;;;;;;4935881;29;20788;-91
2022/04/03 06:18:15;;;;;;;6.43;2.80;;;6.70;88.20;;;;;;4934374;29;20768;-92
2022/04/03 06:20:43;;;;;;;3.77;2.40;;;6.70;88.30;;;;;;4954730;29;20432;-90
2022/04/03 06:23:16;;;;;;;3.10;2.80;;;6.70;88.30;;;;;;4939671;29;20478;-91
2022/04/03 06:25:43;;;;;;;3.30;2.40;;;6.70;88.40;;;;;;4923268;29;20448;-91
2022/04/03 06:28:12;;;;;;;3.87;2.97;;;6.70;88.40;;;;;;4917300;29;20442;-89
2022/04/03 06:30:42;;;;;;;6.03;3.13;;;6.70;88.30;;;;;;4920144;29;20463;-90
2022/04/03 06:33:10;;;;;;;6.90;3.07;;;6.70;88.30;;;;;;4919951;29;20433;-92
2022/04/03 06:35:36;;;;;;;4.33;2.30;;;6.70;88.40;;;;;;4920515;29;20460;-91
2022/04/03 06:38:02;;;;;;;5.93;2.20;;;6.70;88.40;;;;;;4922499;29;20482;-89
2022/04/03 06:40:28;;;;;;;3.60;2.70;;;6.70;88.40;;;;;;4952020;29;20503;-91
2022/04/03 06:42:55;;;;;;;4.80;2.60;;;6.70;88.40;;;;;;4950817;29;20456;-92
2022/04/03 06:45:24;;;;;;;2.87;2.40;;;6.70;88.40;;;;;;4940918;29;20447;-91
2022/04/03 06:47:50;;;;;;;3.87;2.83;;;6.70;88.40;;;;;;4935587;29;20462;-91
2022/04/03 06:50:16;;;;;;;3.03;2.23;;;6.70;88.40;;;;;;4919824;29;20553;-92
2022/04/03 06:52:42;;;;;;;3.33;2.43;;;6.70;88.50;;;;;;4919721;29;20814;-92
2022/04/03 06:55:08;;;;;;;3.50;2.70;;;6.70;88.60;;;;;;4935143;29;20423;-92
2022/04/03 06:57:37;;;;;;;3.70;2.70;;;6.70;88.50;;;;;;4919461;29;20491;-91
2022/04/03 07:00:06;;;;;;;3.07;2.20;;;6.70;88.60;;;;;;4921677;29;20443;-91
2022/04/03 07:02:33;;;;;;;4.23;2.83;;;6.70;88.60;;;;;;4937999;29;20779;-91
2022/04/03 07:05:02;;;;;;;4.70;2.23;;;6.70;88.60;;;;;;4938384;29;20769;-90
2022/04/03 07:07:33;;;;;;;4.07;2.77;;;6.70;88.60;;;;;;4953934;29;20416;-92
2022/04/03 07:09:59;;;;;;;4.87;2.77;;;6.70;88.60;;;;;;4937863;29;20521;-92
2022/04/03 07:12:25;;;;;;;3.90;2.63;;;6.70;88.70;;;;;;4938391;29;20458;-91
2022/04/03 07:14:51;;;;;;;3.43;2.43;;;6.60;88.60;;;;;;4939378;29;20255;-91
2022/04/03 07:17:17;;;;;;;3.10;2.40;;;6.70;88.60;;;;;;4953922;29;20219;-91
2022/04/03 07:19:46;;;;;;;3.97;2.90;;;6.70;88.60;;;;;;4943988;29;20499;-90
2022/04/03 07:22:14;;;;;;;4.33;2.70;;;6.70;88.50;;;;;;4924878;29;20467;-89
2022/04/03 07:24:47;;;;;;;6.80;2.60;;;6.70;88.60;;;;;;4915013;29;20435;-89
2022/04/03 07:27:13;;;;;;;4.10;2.50;;;6.70;88.50;;;;;;4938282;29;20430;-90
2022/04/03 07:29:44;;;;;;;3.70;2.67;;;6.70;88.50;;;;;;4953076;29;20452;-90
2022/04/03 07:32:12;;;;;;;3.07;2.13;;;6.70;88.50;;;;;;4953706;29;20434;-91
2022/04/03 07:34:42;;;;;;;4.77;3.70;;;6.70;88.40;;;;;;4927559;29;20520;-89
2022/04/03 07:37:11;;;;;;;4.33;2.70;;;6.70;88.50;;;;;;4934296;29;20539;-89
2022/04/03 07:40:06;;;;;;;4.50;2.73;;;6.70;89.30;;;;;;4932922;29;20453;-90
2022/04/03 07:42:32;;;;;;;4.40;2.30;;;6.70;88.50;;;;;;4953528;29;20445;-90
2022/04/03 07:45:01;;;;;;;2.83;2.20;;;6.70;88.50;;;;;;4937508;29;20431;-90
2022/04/03 07:47:27;;;;;;;3.33;2.60;;;6.70;88.60;;;;;;4934251;29;20439;-90
2022/04/03 07:49:53;;;;;;;4.53;2.40;;;6.70;88.60;;;;;;4918619;29;20464;-90
2022/04/03 07:52:19;;;;;;;3.90;2.33;;;6.70;88.60;;;;;;4930462;29;20435;-91
2022/04/03 07:54:45;;;;;;;4.45;3.20;;;6.70;88.70;;;;;;4938039;29;20438;-90
2022/04/03 07:57:13;;;;;;;3.67;2.50;;;6.70;88.70;;;;;;4937282;29;20211;-90
2022/04/03 07:59:39;;;;;;;3.60;2.53;;;6.70;88.60;;;;;;4953524;29;20530;-90
2022/04/03 08:02:06;;;;;;;2.87;2.10;;;6.70;88.60;;;;;;4959161;28;20714;-90
2022/04/03 08:04:32;;;;;;;4.43;2.50;;;6.70;88.60;;;;;;4940755;29;20727;-91
2022/04/03 08:07:00;;;;;;;4.43;2.80;;;6.70;88.60;;;;;;4928494;29;20454;-91
2022/04/03 08:09:29;;;;;;;5.33;3.00;;;6.70;88.60;;;;;;4929775;29;20265;-91
2022/04/03 08:11:57;;;;;;;4.10;2.90;;;6.70;88.60;;;;;;4921543;29;20442;-90
2022/04/03 08:14:27;;;;;;;4.70;3.00;;;6.70;88.50;;;;;;4938162;29;20976;-92
2022/04/03 08:16:54;;;;;;;5.10;2.43;;;6.70;88.50;;;;;;4953183;29;20476;-91
2022/04/03 08:19:20;;;;;;;3.90;2.87;;;6.70;88.50;;;;;;4924129;29;20447;-92
2022/04/03 08:21:48;;;;;;;7.43;3.17;;;6.70;88.50;;;;;;4937510;29;20434;-89
2022/04/03 08:24:15;;;;;;;4.60;2.40;;;6.70;88.50;;;;;;4938000;29;20182;-90
2022/04/03 08:26:43;;;;;;;8.80;2.73;;;6.80;88.60;;;;;;4952784;29;20767;-91
2022/04/03 08:29:10;;;;;;;5.23;2.70;;;6.80;88.50;;;;;;4921598;29;20967;-92
2022/04/03 08:31:39;;;;;;;4.00;2.50;;;6.70;88.30;;;;;;4938005;29;20459;-90
2022/04/03 08:34:09;;;;;;;8.93;3.13;;;6.80;88.30;;;;;;4937897;29;20471;-90
2022/04/03 08:36:35;;;;;;;4.33;2.63;;;6.80;88.30;;;;;;4932108;29;20487;-91
2022/04/03 08:39:01;;;;;;;7.10;3.00;;;6.80;88.00;;;;;;4934929;29;20483;-90
2022/04/03 08:41:28;;;;;;;5.30;3.03;;;6.80;87.90;;;;;;4954667;29;20951;-90
2022/04/03 08:43:58;;;;;;;5.17;3.17;;;6.80;87.80;;;;;;4956499;29;20792;-91
2022/04/03 08:46:25;;;;;;;6.50;3.20;;;6.80;87.60;;;;;;4940626;29;20428;-90
2022/04/03 08:49:00;;;;;;;8.10;3.30;;;6.80;87.60;;;;;;4926273;29;20525;-90
2022/04/03 08:51:30;;;;;;;7.17;3.63;;;6.90;87.30;;;;;;4924412;29;20750;-88
2022/04/03 08:53:59;;;;;;;4.83;3.00;;;6.80;86.80;;;;;;4935963;29;20519;-89
2022/04/03 08:56:25;;;;;;;4.87;3.57;;;6.90;86.90;;;;;;4925516;29;20556;-90
2022/04/03 08:58:51;;;;;;;3.57;3.00;;;6.90;86.80;;;;;;4939019;29;20447;-90
2022/04/03 09:01:17;;;;;;;5.13;3.30;;;6.90;86.90;;;;;;4930927;29;20439;-91
2022/04/03 09:03:46;;;;;;;5.53;2.97;;;6.90;86.60;;;;;;4950201;29;20473;-91
2022/04/03 09:06:14;;;;;;;4.60;2.70;;;6.90;86.20;;;;;;4943748;29;20191;-87
2022/04/03 09:08:41;;;;;;;4.27;2.90;;;6.90;85.90;;;;;;4939366;29;20529;-88
2022/04/03 09:11:07;;;;;;;4.10;2.90;;;6.90;86.10;;;;;;4941002;29;20460;-90
2022/04/03 09:13:37;;;;;;;4.13;2.13;;;7.00;86.30;;;;;;4940289;29;20750;-91
2022/04/03 09:16:06;;;;;;;9.13;2.87;;;7.00;86.40;;;;;;4941163;29;20550;-91
2022/04/03 09:18:47;;;;;;;3.10;2.20;;;7.00;86.50;;;;;;4928070;29;20914;-90
2022/04/03 09:21:21;;;;;;;6.97;2.67;;;7.00;86.60;;;;;;4905494;29;20965;-91
2022/04/03 09:24:01;;;;;;;4.90;2.60;;;7.10;86.80;;;;;;4931969;29;20758;-90
2022/04/03 09:26:31;;;;;;;5.03;2.63;;;7.10;86.80;;;;;;4945449;29;20432;-91
2022/04/03 09:29:07;;;;;;;3.23;2.80;;;7.10;86.80;;;;;;4936534;29;20446;-89
2022/04/03 09:31:36;;;;;;;4.97;3.17;;;7.10;86.70;;;;;;4936826;29;20420;-91
2022/04/03 09:34:04;;;;;;;5.07;2.90;;;7.10;86.70;;;;;;4931456;29;20920;-92
2022/04/03 09:36:33;;;;;;;3.40;2.50;;;7.20;86.70;;;;;;4927735;29;20480;-91
2022/04/03 09:39:16;;;;;;;4.27;2.63;;;7.20;86.80;;;;;;4944890;29;20443;-91
2022/04/03 09:42:02;;;;;;;10.10;2.70;;;7.20;87.00;;;;;;4937035;29;20751;-90
2022/04/03 09:44:40;;;;;;;3.87;2.00;;;7.20;86.90;;;;;;4921315;29;20539;-90
2022/04/03 09:47:35;;;;;;;3.87;2.33;;;7.20;87.00;;;;;;4937616;29;20424;-89
2022/04/03 09:50:04;;;;;;;3.33;2.40;;;7.20;87.20;;;;;;4938743;29;20786;-89
2022/04/03 09:52:47;;;;;;;4.27;3.20;;;7.20;87.20;;;;;;4955566;29;20396;-89
2022/04/03 09:55:20;;;;;;;3.70;2.33;;;7.20;87.20;;;;;;4939967;29;20462;-89
2022/04/03 09:57:49;;;;;;;3.10;2.50;;;7.30;87.30;;;;;;4955272;29;20624;-91
2022/04/03 10:00:29;;;;;;;4.00;2.20;;;7.30;87.20;;;;;;4920705;29;20428;-91
2022/04/03 10:03:00;;;;;;;4.30;2.60;;;7.30;87.10;;;;;;4920645;29;20469;-91
2022/04/03 10:05:29;;;;;;;3.70;2.50;;;7.30;87.00;;;;;;4920614;29;20452;-91
2022/04/03 10:08:00;;;;;;;2.90;2.30;;;7.40;86.70;;;;;;4932209;29;20473;-91
2022/04/03 10:10:32;;;;;;;4.03;2.77;;;7.30;86.20;;;;;;4955290;29;20459;-92
2022/04/03 10:12:58;;;;;;;7.50;2.50;;;7.40;86.20;;;;;;4939833;29;20432;-93
2022/04/03 10:15:25;;;;;;;2.40;1.97;;;7.40;86.20;;;;;;4930381;29;20504;-94
2022/04/03 10:17:54;;;;;;;3.80;2.53;;;7.40;86.10;;;;;;4955269;28;20463;-92
2022/04/03 10:20:28;;;;;;;6.60;2.40;;;7.40;86.00;;;;;;4924011;29;20453;-93
2022/04/03 10:23:04;;;;;;;3.40;2.37;;;7.40;85.90;;;;;;4922414;29;20979;-92
2022/04/03 10:25:39;;;;;;;3.50;1.80;;;7.50;85.80;;;;;;4923858;29;20416;-92
2022/04/03 10:28:08;;;;;;;3.10;2.30;;;7.50;85.80;;;;;;4938732;29;20498;-92
2022/04/03 10:30:46;;;;;;;5.33;2.30;;;7.50;85.90;;;;;;4955014;29;20445;-90
2022/04/03 10:33:23;;;;;;;2.70;2.30;;;7.50;85.70;;;;;;4939471;29;20470;-91
2022/04/03 10:36:02;;;;;;;6.10;2.10;;;7.50;85.60;;;;;;4926603;29;20445;-91
2022/04/03 10:38:47;;;;;;;3.73;2.13;;;7.60;85.80;;;;;;4916379;29;20435;-92
2022/04/03 10:41:34;;;;;;;2.63;2.00;;;7.60;85.50;;;;;;4939086;29;20451;-91
2022/04/03 10:44:18;;;;;;;2.83;1.90;;;7.60;85.20;;;;;;4904600;29;20437;-89
2022/04/03 10:47:05;;;;;;;5.57;2.80;;;7.60;85.20;;;;;;4904514;29;20481;-92
2022/04/03 10:49:33;;;;;;;3.57;2.37;;;7.60;85.20;;;;;;4935287;29;20572;-91
2022/04/03 10:52:03;;;;;;;4.03;2.70;;;7.60;85.30;;;;;;4921466;29;20431;-93
2022/04/03 10:54:30;;;;;;;3.10;2.43;;;7.60;85.40;;;;;;4918595;29;20463;-92
2022/04/03 10:57:34;;;;;;;5.10;2.70;;;7.70;85.30;;;;;;4938605;29;20468;-91
2022/04/03 11:00:11;;;;;;;4.17;2.40;;;7.70;85.30;;;;;;4938445;29;20511;-87
2022/04/03 11:02:40;;;;;;;3.40;2.47;;;7.70;85.10;;;;;;4954572;29;20427;-92
2022/04/03 11:05:29;;;;;;;3.43;2.43;;;7.70;85.30;;;;;;4922360;29;20434;-91
2022/04/03 11:08:01;;;;;;;3.67;2.30;;;7.70;85.60;;;;;;4929747;29;20463;-92
2022/04/03 11:10:57;;;;;;;3.50;2.10;;;7.80;85.60;;;;;;4907247;29;20447;-92
2022/04/03 11:13:34;;;;;;;3.80;1.83;;;7.80;85.70;;;;;;4938281;29;20478;-92
2022/04/03 11:16:04;;;;;;;2.33;2.00;;;7.80;85.70;;;;;;4939060;29;20450;-92
2022/04/03 11:18:48;;;;;;;3.53;2.20;;;7.90;85.90;;;;;;4938487;29;20428;-93
2022/04/03 11:21:23;;;;;;;4.17;2.10;;;7.90;85.90;;;;;;4954242;29;20898;-91
2022/04/03 11:23:58;;;;;;;2.60;2.17;;;7.90;85.90;;;;;;4954064;29;20396;-92
2022/04/03 11:26:23;;;;;;;6.70;2.13;;;7.90;86.00;;;;;;4951515;29;20429;-90
2022/04/03 11:28:50;;;;;;;5.23;2.40;;;8.00;86.20;;;;;;4934884;29;20445;-91
2022/04/03 11:31:15;;;;;;;4.73;2.73;;;7.90;85.90;;;;;;4919011;29;20914;-92
2022/04/03 11:33:42;;;;;;;6.97;2.53;;;8.00;85.70;;;;;;4934807;29;20447;-93
2022/04/03 11:36:12;;;;;;;4.73;2.50;;;8.00;85.70;;;;;;4919674;29;20571;-91
2022/04/03 11:38:43;;;;;;;5.47;2.50;;;8.10;85.80;;;;;;4934899;29;20719;-93
2022/04/03 11:41:34;;;;;;;2.73;2.10;;;8.10;86.00;;;;;;4935106;29;21143;-92
2022/04/03 11:44:05;;;;;;;2.87;1.60;;;8.10;85.80;;;;;;4935777;29;20790;-91
2022/04/03 11:46:45;;;;;;;4.40;2.23;;;8.10;85.60;;;;;;4922566;29;20746;-91
2022/04/03 11:49:22;;;;;;;2.90;2.20;;;8.20;85.60;;;;;;4937949;29;20479;-93
2022/04/03 11:51:58;;;;;;;3.00;1.80;;;8.20;85.70;;;;;;4953879;29;20406;-92
2022/04/03 11:54:25;;;;;;;3.10;1.70;;;8.20;85.80;;;;;;4937919;29;20434;-93
2022/04/03 11:57:00;;;;;;;3.23;2.03;;;8.20;85.90;;;;;;4937315;29;21104;-92
2022/04/03 11:59:29;;;;;;;3.70;2.20;;;8.30;86.10;;;;;;4953947;29;20434;-92
2022/04/03 12:01:55;;;;;;;3.17;1.67;;;8.30;86.10;;;;;;4938948;29;20520;-92
2022/04/03 12:04:23;;;;;;;2.70;1.53;;;8.30;86.00;;;;;;4933528;29;20496;-90
2022/04/03 12:06:58;;;;;;;2.10;1.30;;;8.40;86.20;;;;;;4931144;29;20445;-90
2022/04/03 12:09:26;;;;;;;3.13;1.90;;;8.40;85.90;;;;;;4953384;29;20466;-93
2022/04/03 12:11:56;;;;;;;3.37;1.50;;;8.40;85.80;;;;;;4937258;29;20424;-93
2022/04/03 12:14:32;;;;;;;2.27;1.50;;;8.50;86.60;;;;;;4937560;29;20420;-93
2022/04/03 12:17:18;;;;;;;3.23;2.00;;;8.50;85.90;;;;;;4937363;29;20480;-92
2022/04/03 12:19:47;;;;;;;2.93;1.43;;;8.50;86.00;;;;;;4937973;29;20765;-94
2022/04/03 12:22:15;;;;;;;2.53;1.37;;;8.50;86.00;;;;;;4938150;29;20506;-94
2022/04/03 12:24:44;;;;;;;2.30;1.60;;;8.50;86.00;;;;;;4937760;29;20457;-94
2022/04/03 12:27:22;;;;;;;8.30;1.70;;;8.60;86.20;;;;;;4921545;29;20432;-92
2022/04/03 12:29:51;;;;;;;2.60;1.70;;;8.60;86.20;;;;;;4918652;29;20508;-95
2022/04/03 12:32:17;;;;;;;1.90;1.57;;;8.60;86.90;;;;;;4918788;29;20432;-95
2022/04/03 12:34:48;;;;;;;1.83;1.60;;;8.70;86.00;;;;;;4918577;29;20459;-95
2022/04/03 12:37:17;;;;;;;3.53;1.80;;;8.70;86.10;;;;;;4935596;29;20475;-96
2022/04/03 12:40:00;;;;;;;2.20;1.67;;;8.70;85.90;;;;;;4953154;29;20440;-95
2022/04/03 12:42:30;;;;;;;3.67;1.50;;;8.70;85.70;;;;;;4952699;29;20438;-94
2022/04/03 12:45:01;;;;;;;3.20;1.50;;;8.70;85.50;;;;;;4937207;29;20428;-95
2022/04/03 12:47:29;;;;;;;3.30;1.50;;;8.80;85.30;;;;;;4952379;29;20436;-92
2022/04/03 12:50:05;;;;;;;1.67;1.40;;;8.80;85.20;;;;;;4956237;29;20434;-96
2022/04/03 12:52:43;;;;;;;2.40;1.40;;;8.80;84.90;;;;;;4937317;29;20414;-95
2022/04/03 12:55:24;;;;;;;2.53;1.57;;;8.80;84.60;;;;;;4923894;29;20502;-93
2022/04/03 13:01:11;;;;;;;5.50;1.57;;;8.80;84.40;;;;;;4937268;29;20466;-92
2022/04/03 13:03:47;;;;;;;2.53;1.30;;;8.90;84.50;;;;;;4921992;29;20428;-93
2022/04/03 13:06:26;;;;;;;2.57;1.63;;;8.90;84.50;;;;;;4932508;29;20478;-94
2022/04/03 13:09:04;;;;;;;2.10;1.47;;;8.90;84.60;;;;;;4970789;28;20491;-93
2022/04/03 13:11:30;;;;;;;5.50;1.50;;;8.90;84.80;;;;;;4947022;29;20531;-93
2022/04/03 13:14:12;;;;;;;2.13;1.77;;;8.90;84.80;;;;;;4930146;29;20511;-94